Observations for LAKENHEATH RAF, United Kingdom (EGUL)

EGUL 250256Z AUTO 21003KT 9999 CLR M01/M01 A2985 RMK AO2 SLP112 T10111011 56003 
EGUL 250156Z AUTO 00000KT 9999 CLR 00/00 A2986 RMK AO2 SLP115 T10051005 
EGUL 250056Z AUTO 21004KT 9999 CLR 00/00 A2986 RMK AO2 SLP115 T10041004 
EGUL 242356Z AUTO 19004KT 9999 CLR M01/M01 A2986 RMK AO2 SLP115 T10061006 10009 21020 400781020 58003   
EGUL 242256Z AUTO 00000KT 9999 CLR M01/M01 A2987 RMK AO2 SLP119 T10091009   
EGUL 242156Z AUTO 16003KT 9999 CLR M02/M02 A2987 RMK AO2 SLP119 T10201020   
EGUL 242056Z AUTO 00000KT 9999 CLR M02/M02 A2987 RMK AO2 SLP119 T10181018 50002 
EGUL 241956Z AUTO 00000KT 9999 CLR M01/M01 A2988 RMK AO2 SLP122 T10111011   
EGUL 241856Z AUTO 15003KT 9999 CLR 00/00 A2987 RMK AO2 SLP119 T10051005 
EGUL 241756Z AUTO 00000KT 9999 CLR 01/01 A2987 RMK AO2 SLP119 T00050005 10078 20005 52004   
EGUL 241656Z AUTO 18004KT 9999 CLR 02/02 A2987 RMK AO2 SLP119 T00210021 
EGUL 241556Z AUTO 00000KT 9999 CLR 04/04 A2986 RMK AO2 SLP115 T00360036 
EGUL 241456Z AUTO 23003KT 9999 CLR 06/05 A2985 RMK AO2 SLP112 T00580051 50004   
EGUL 241356Z AUTO 28004KT 9999 CLR 07/03 A2984 RMK AO2 SLP108 T00660032 
EGUL 241256Z AUTO 27004KT 9999 CLR 07/04 A2984 RMK AO2 SLP108 T00730044 
EGUL 241156Z AUTO 28005KT 9999 SCT170 07/06 A2984 RMK AO2 SLP108 T00650062 10069 20007 52015
EGUL 241056Z AUTO 28007KT 9999 CLR 07/07 A2984 RMK AO2 SLP108 T00680065 
EGUL 240956Z AUTO 28003KT 9999 CLR 05/05 A2982 RMK AO2 SLP102 T00450045 
EGUL 240856Z AUTO 00000KT 9999 CLR 02/02 A2980 RMK AO2 SLP095 T00150015 52023   
EGUL 240756Z AUTO 00000KT 9999 CLR 01/01 A2978 RMK AO2 SLP088 T00080008 
EGUL 240656Z AUTO 00000KT 9999 FEW120 02/02 A2975 RMK AO2 SLP078 T00160016  
EGUL 240556Z AUTO 00000KT 9999 FEW130 03/03 A2973 RMK AO2 SLP071 T00280028 10058 20024 53013
EGUL 240456Z AUTO 00000KT 9999 BKN120 03/03 A2971 RMK AO2 SLP064 T00290029  
EGUL 240356Z AUTO 00000KT 9999 BKN120 04/04 A2970 RMK AO2 SLP061 T00410041  
EGUL 240256Z AUTO 00000KT 9999 BKN110 05/05 A2969 RMK AO2 SLP057 T00470047 53006